createdAt,value
2022-11-20T00:01:45.063Z,2.60
2022-11-20T00:06:47.729Z,2.80
2022-11-20T00:11:49.603Z,2.27
2022-11-20T00:16:51.097Z,2.53
2022-11-20T00:21:54.732Z,2.43
2022-11-20T00:26:56.255Z,1.87
2022-11-20T00:31:57.683Z,3.07
2022-11-20T00:36:59.338Z,2.50
2022-11-20T00:42:00.823Z,2.27
2022-11-20T00:47:02.359Z,4.20
2022-11-20T00:52:03.863Z,2.70
2022-11-20T00:57:05.655Z,2.60
2022-11-20T01:02:07.099Z,2.00
2022-11-20T01:07:08.617Z,2.67
2022-11-20T01:12:10.214Z,2.40
2022-11-20T01:17:11.689Z,2.33
2022-11-20T01:22:14.221Z,1.97
2022-11-20T01:27:15.667Z,2.47
2022-11-20T01:32:17.490Z,2.07
2022-11-20T01:37:19.020Z,2.50
2022-11-20T01:42:38.906Z,2.33
2022-11-20T01:47:45.259Z,2.40
2022-11-20T01:52:51.753Z,2.37
2022-11-20T01:57:53.820Z,2.33
2022-11-20T02:03:01.373Z,2.50
2022-11-20T02:08:05.365Z,2.37
2022-11-20T02:13:25.774Z,1.98
2022-11-20T02:18:27.658Z,2.77
2022-11-20T02:23:40.842Z,2.30
2022-11-20T02:28:42.611Z,2.43
2022-11-20T02:33:44.118Z,2.10
2022-11-20T02:38:45.876Z,2.07
2022-11-20T02:43:47.428Z,2.47
2022-11-20T02:48:49.014Z,2.17
2022-11-20T02:53:50.981Z,2.40
2022-11-20T02:58:52.564Z,2.83
2022-11-20T03:03:55.492Z,2.67
2022-11-20T03:08:57.027Z,1.97
2022-11-20T03:13:58.592Z,2.50
2022-11-20T03:19:00.413Z,2.17
2022-11-20T03:24:02.673Z,2.60
2022-11-20T03:29:05.280Z,2.47
2022-11-20T03:34:07.881Z,2.30
2022-11-20T03:39:09.687Z,1.97
2022-11-20T03:44:12.662Z,2.03
2022-11-20T03:49:14.145Z,2.30
2022-11-20T03:54:15.592Z,2.17
2022-11-20T03:59:17.441Z,2.17
2022-11-20T04:04:18.991Z,2.67
2022-11-20T04:09:20.706Z,2.07
2022-11-20T04:14:22.525Z,2.70
2022-11-20T04:19:24.343Z,2.40
2022-11-20T04:24:27.005Z,3.13
2022-11-20T04:29:28.475Z,2.27
2022-11-20T04:34:30.004Z,2.83
2022-11-20T04:39:31.473Z,2.50
2022-11-20T04:44:32.930Z,2.93
2022-11-20T04:49:34.934Z,3.00
2022-11-20T04:54:36.405Z,2.60
2022-11-20T04:59:37.881Z,3.07
2022-11-20T05:04:39.461Z,2.80
2022-11-20T05:09:40.965Z,2.90
2022-11-20T05:14:42.447Z,2.80
2022-11-20T05:19:43.906Z,3.60
2022-11-20T05:24:45.430Z,3.13
2022-11-20T05:29:46.887Z,3.70
2022-11-20T05:34:48.296Z,3.30
2022-11-20T05:39:50.394Z,3.40
2022-11-20T05:44:51.840Z,3.27
2022-11-20T05:49:53.390Z,4.07
2022-11-20T05:54:54.882Z,4.10
2022-11-20T05:59:56.492Z,3.20
2022-11-20T06:04:57.973Z,3.80
2022-11-20T06:09:59.402Z,3.60
2022-11-20T06:15:01.951Z,4.17
2022-11-20T06:20:03.739Z,3.60
2022-11-20T06:25:05.320Z,3.80
2022-11-20T06:30:07.399Z,3.73
2022-11-20T06:35:09.219Z,4.17
2022-11-20T06:40:11.272Z,4.43
2022-11-20T06:45:12.820Z,4.40
2022-11-20T06:50:14.626Z,4.47
2022-11-20T06:55:16.162Z,3.97
2022-11-20T07:00:17.763Z,4.53
2022-11-20T07:05:19.423Z,5.03
2022-11-20T07:10:20.907Z,4.97
2022-11-20T07:15:24.347Z,5.63
2022-11-20T07:20:25.945Z,5.60
2022-11-20T07:25:29.002Z,4.93
2022-11-20T07:30:31.115Z,5.23
2022-11-20T07:35:32.624Z,5.77
2022-11-20T07:40:34.044Z,5.37
2022-11-20T07:45:35.619Z,7.10
2022-11-20T07:50:37.046Z,7.50
2022-11-20T07:55:38.534Z,7.50
2022-11-20T08:00:39.985Z,6.57
2022-11-20T08:05:41.576Z,7.03
2022-11-20T08:10:43.036Z,7.17
2022-11-20T08:15:50.664Z,11.80
2022-11-20T08:20:52.114Z,12.80
2022-11-20T08:25:53.625Z,8.30
2022-11-20T08:31:00.105Z,8.27
2022-11-20T08:36:03.717Z,6.93
2022-11-20T08:41:24.434Z,7.80
2022-11-20T08:46:28.007Z,8.30
2022-11-20T08:51:29.481Z,7.73
2022-11-20T08:56:31.212Z,7.07
2022-11-20T09:01:32.743Z,6.37
2022-11-20T09:06:34.189Z,9.10
2022-11-20T09:11:36.699Z,7.17
2022-11-20T09:16:38.182Z,5.73
2022-11-20T09:21:39.651Z,5.13
2022-11-20T09:26:41.128Z,5.93
2022-11-20T09:31:42.689Z,9.20
2022-11-20T09:36:44.154Z,7.43
2022-11-20T09:42:10.151Z,6.53
2022-11-20T09:47:14.498Z,6.13
2022-11-20T09:52:23.141Z,8.18
2022-11-20T09:57:37.336Z,3.37
2022-11-20T10:03:19.715Z,3.80
2022-11-20T10:08:30.323Z,5.30
2022-11-20T10:13:40.884Z,5.68
2022-11-20T10:18:45.151Z,3.17
2022-11-20T10:24:16.088Z,4.70
2022-11-20T10:29:20.185Z,2.65
2022-11-20T10:34:32.677Z,2.05
2022-11-20T10:39:43.299Z,3.03
2022-11-20T10:45:06.325Z,3.08
2022-11-20T10:50:20.598Z,2.13
2022-11-20T10:55:45.702Z,1.50
2022-11-20T11:00:47.210Z,0.95
2022-11-20T11:05:57.646Z,2.35
2022-11-20T11:11:04.014Z,1.65
2022-11-20T11:16:05.568Z,1.48
2022-11-20T11:21:07.074Z,1.23
2022-11-20T11:26:21.242Z,1.48
2022-11-20T11:31:27.971Z,1.27
2022-11-20T11:36:29.512Z,1.20
2022-11-20T11:41:36.615Z,1.20
2022-11-20T11:46:38.735Z,1.45
2022-11-20T11:52:06.664Z,1.60
2022-11-20T11:57:19.700Z,1.77
2022-11-20T12:02:33.245Z,3.17
2022-11-20T12:07:46.925Z,1.95
2022-11-20T12:12:55.630Z,1.20
2022-11-20T12:17:57.333Z,1.60
2022-11-20T12:22:58.755Z,3.20
2022-11-20T12:28:32.650Z,1.58
2022-11-20T12:33:41.493Z,1.80
2022-11-20T12:39:07.185Z,1.15
2022-11-20T12:44:33.557Z,0.98
2022-11-20T12:49:37.762Z,2.70
2022-11-20T12:54:45.544Z,3.15
2022-11-20T13:00:05.092Z,2.08
2022-11-20T13:05:31.274Z,5.00
2022-11-20T13:10:37.541Z,1.70
2022-11-20T13:15:54.797Z,9.10
2022-11-20T13:20:56.515Z,2.20
2022-11-20T13:26:25.198Z,1.50
2022-11-20T13:31:33.291Z,3.50
2022-11-20T13:36:36.038Z,3.53
2022-11-20T13:41:41.942Z,1.75
2022-11-20T13:46:47.974Z,1.50
2022-11-20T13:51:52.602Z,1.38
2022-11-20T13:57:14.887Z,1.40
2022-11-20T14:02:20.625Z,1.35
2022-11-20T14:07:26.744Z,4.03
2022-11-20T14:12:33.964Z,3.53
2022-11-20T14:17:37.541Z,4.32
2022-11-20T14:22:39.098Z,3.90
2022-11-20T14:27:42.856Z,2.30
2022-11-20T14:32:46.127Z,2.10
2022-11-20T14:37:48.406Z,3.00
2022-11-20T14:42:49.892Z,1.60
2022-11-20T14:47:54.294Z,2.63
2022-11-20T14:52:56.873Z,4.88
2022-11-20T14:58:01.545Z,7.47
2022-11-20T15:08:08.060Z,5.50
2022-11-20T15:13:16.457Z,5.30
2022-11-20T15:18:21.553Z,6.47
2022-11-20T15:23:23.429Z,9.73
2022-11-20T15:28:38.004Z,8.43
2022-11-20T15:38:40.962Z,6.80
2022-11-20T15:43:42.485Z,6.17
2022-11-20T15:48:48.789Z,6.60
2022-11-20T15:53:50.388Z,5.00
2022-11-20T15:58:51.968Z,8.70
2022-11-20T16:03:53.411Z,8.87
2022-11-20T16:08:54.995Z,9.37
2022-11-20T16:14:15.149Z,10.80
2022-11-20T16:19:16.754Z,9.93
2022-11-20T16:24:18.337Z,7.70
2022-11-20T16:29:19.869Z,8.13
2022-11-20T16:34:21.292Z,8.07
2022-11-20T16:39:24.109Z,8.50
2022-11-20T16:44:26.302Z,7.50
2022-11-20T16:49:27.904Z,6.13
2022-11-20T16:54:29.416Z,6.90
2022-11-20T16:59:30.872Z,9.37
2022-11-20T17:04:32.377Z,10.80
2022-11-20T17:09:34.732Z,11.20
2022-11-20T17:14:36.264Z,10.40
2022-11-20T17:19:37.944Z,8.00
2022-11-20T17:24:39.448Z,7.10
2022-11-20T17:29:42.289Z,8.87
2022-11-20T17:34:44.032Z,9.50
2022-11-20T17:39:45.636Z,9.93
2022-11-20T17:44:47.415Z,14.57
2022-11-20T17:49:48.890Z,13.13
2022-11-20T17:54:52.548Z,13.10
2022-11-20T17:59:54.219Z,13.43
2022-11-20T18:04:55.851Z,10.40
2022-11-20T18:09:57.467Z,9.97
2022-11-20T18:14:59.162Z,14.40
2022-11-20T18:20:27.752Z,17.60
2022-11-20T18:25:22.140Z,26.17
2022-11-20T18:30:23.712Z,18.93
2022-11-20T18:35:26.682Z,17.43
2022-11-20T18:40:28.170Z,17.23
2022-11-20T18:45:30.393Z,17.50
2022-11-20T18:50:31.837Z,16.03
2022-11-20T18:55:33.280Z,17.47
2022-11-20T19:00:34.770Z,16.60
2022-11-20T19:05:36.593Z,16.33
2022-11-20T19:10:38.121Z,16.83
2022-11-20T19:15:40.321Z,14.07
2022-11-20T19:20:41.784Z,12.77
2022-11-20T19:25:43.717Z,10.97
2022-11-20T19:30:45.281Z,13.27
2022-11-20T19:35:46.765Z,11.80
2022-11-20T19:40:48.271Z,11.40
2022-11-20T19:45:49.880Z,11.50
2022-11-20T19:50:51.496Z,12.07
2022-11-20T19:56:00.280Z,12.07
2022-11-20T20:01:19.372Z,10.83
2022-11-20T20:06:26.151Z,10.93
2022-11-20T20:11:29.888Z,10.77
2022-11-20T20:16:31.775Z,12.80
2022-11-20T20:21:35.189Z,12.17
2022-11-20T20:26:37.101Z,13.40
2022-11-20T20:31:39.880Z,14.53
2022-11-20T20:36:41.387Z,16.23
2022-11-20T20:41:42.904Z,15.87
2022-11-20T20:46:44.349Z,16.37
2022-11-20T20:51:45.898Z,20.67
2022-11-20T20:56:47.409Z,21.97
2022-11-20T21:01:49.076Z,20.03
2022-11-20T21:06:50.557Z,18.13
2022-11-20T21:11:52.034Z,16.53
2022-11-20T21:16:53.509Z,15.80
2022-11-20T21:22:00.795Z,14.57
2022-11-20T21:27:04.999Z,12.60
2022-11-20T21:32:06.456Z,12.40
2022-11-20T21:37:07.896Z,9.03
2022-11-20T21:42:09.415Z,7.63
2022-11-20T21:47:12.020Z,6.47
2022-11-20T21:52:13.519Z,6.27
2022-11-20T21:57:15.091Z,6.83
2022-11-20T22:02:16.581Z,7.07
2022-11-20T22:07:18.314Z,6.93
2022-11-20T22:12:19.783Z,11.43
2022-11-20T22:17:41.233Z,8.73
2022-11-20T22:22:42.738Z,7.27
2022-11-20T22:27:46.114Z,8.07
2022-11-20T22:32:47.669Z,8.17
2022-11-20T22:37:49.574Z,7.13
2022-11-20T22:42:51.042Z,7.37
2022-11-20T22:47:52.530Z,8.23
2022-11-20T22:52:54.034Z,7.47
2022-11-20T22:57:56.502Z,7.37
2022-11-20T23:02:57.941Z,7.60
2022-11-20T23:07:59.418Z,7.33
2022-11-20T23:13:00.876Z,7.20
2022-11-20T23:18:02.397Z,8.00
2022-11-20T23:23:03.809Z,8.80
2022-11-20T23:28:05.249Z,7.47
2022-11-20T23:33:06.749Z,9.80
2022-11-20T23:38:08.316Z,8.13
2022-11-20T23:43:15.427Z,8.07
2022-11-20T23:48:17.397Z,8.00
2022-11-20T23:53:19.467Z,7.50
2022-11-20T23:58:22.006Z,8.20
